Time;durP1;ratioP1;P1;durP2;ratioP2;P2;SDS_P1;SDS_P2;PMS_P1;PMS_P2;Temp;Humidity;BMP_temperature;BMP_pressure;BME280_temperature;BME280_humidity;BME280_pressure;Samples;Min_cycle;Max_cycle;Signal;HPM_P1;HPM_P2
2021/01/30 00:01:38;;;;;;;;;;;-0.20;99.90;;;;;;5012903;28;19927;-83
2021/01/30 00:04:04;;;;;;;;;;;-0.20;99.90;;;;;;4994268;28;19928;-83
2021/01/30 00:06:29;;;;;;;;;;;-0.20;99.90;;;;;;4995218;28;19922;-83
2021/01/30 00:08:55;;;;;;;;;;;-0.20;99.90;;;;;;4994592;28;19953;-83
2021/01/30 00:11:20;;;;;;;;;;;-0.20;99.90;;;;;;4992279;28;19917;-83
2021/01/30 00:13:46;;;;;;;;;;;-0.20;99.90;;;;;;4995187;28;19952;-83
2021/01/30 00:16:13;;;;;;;;;;;-0.30;99.90;;;;;;4993816;28;19913;-82
2021/01/30 00:18:38;;;;;;;;;;;-0.30;99.90;;;;;;4975273;28;19913;-82
2021/01/30 00:21:04;;;;;;;;;;;-0.30;99.90;;;;;;4975996;28;19913;-82
2021/01/30 00:23:29;;;;;;;;;;;-0.20;99.90;;;;;;4975616;28;19918;-83
2021/01/30 00:25:55;;;;;;;;;;;-0.20;99.90;;;;;;4978378;28;19913;-83
2021/01/30 00:28:20;;;;;;;;;;;-0.20;99.90;;;;;;4980346;28;19925;-83
2021/01/30 00:30:46;;;;;;;;;;;-0.20;99.90;;;;;;4960743;28;20379;-83
2021/01/30 00:33:12;;;;;;;;;;;-0.20;99.90;;;;;;4969900;28;19953;-82
2021/01/30 00:35:38;;;;;;;;;;;-0.20;99.90;;;;;;4961665;28;19918;-83
2021/01/30 00:38:04;;;;;;;;;;;-0.20;99.90;;;;;;4963310;28;19922;-82
2021/01/30 00:40:29;;;;;;;;;;;-0.20;99.90;;;;;;4936754;28;20359;-82
2021/01/30 00:42:55;;;;;;;;;;;-0.20;99.90;;;;;;4965626;28;19918;-82
2021/01/30 00:45:22;;;;;;;;;;;-0.30;99.90;;;;;;4953866;28;19914;-83
2021/01/30 00:47:47;;;;;;;;;;;-0.20;99.90;;;;;;4951875;28;19966;-83
2021/01/30 00:50:13;;;;;;;;;;;-0.20;99.90;;;;;;4965635;28;19958;-83
2021/01/30 00:52:42;;;;;;;;;;;-0.30;99.90;;;;;;4969601;28;19914;-82
2021/01/30 00:55:08;;;;;;;;;;;-0.30;99.90;;;;;;4960669;28;19973;-83
2021/01/30 00:57:34;;;;;;;;;;;-0.30;99.90;;;;;;4951583;28;19952;-83
2021/01/30 00:59:59;;;;;;;;;;;-0.20;99.90;;;;;;4964769;28;20606;-83
2021/01/30 01:02:25;;;;;;;;;;;-0.20;99.90;;;;;;4983874;28;20389;-82
2021/01/30 01:04:50;;;;;;;;;;;-0.30;99.90;;;;;;4975119;28;19913;-83
2021/01/30 01:07:16;;;;;;;;;;;-0.30;99.90;;;;;;4975405;28;20340;-82
2021/01/30 01:09:41;;;;;;;;;;;-0.30;99.90;;;;;;4975045;28;19929;-83
2021/01/30 01:12:07;;;;;;;;;;;-0.20;99.90;;;;;;4974235;28;20371;-83
2021/01/30 01:14:32;;;;;;;;;;;-0.20;99.90;;;;;;4981757;28;20004;-82
2021/01/30 01:16:58;;;;;;;;;;;-0.30;99.90;;;;;;4995152;28;19924;-82
2021/01/30 01:19:23;;;;;;;;;;;-0.30;99.90;;;;;;4985236;28;20380;-83
2021/01/30 01:21:52;;;;;;;;;;;-0.20;99.90;;;;;;4990413;28;19969;-82
2021/01/30 01:24:18;;;;;;;;;;;-0.20;99.90;;;;;;5000610;28;20278;-83
2021/01/30 01:26:45;;;;;;;;;;;-0.20;99.90;;;;;;4988393;28;19918;-83
2021/01/30 01:29:11;;;;;;;;;;;-0.30;99.90;;;;;;4992851;28;19921;-83
2021/01/30 01:31:37;;;;;;;;;;;-0.20;99.90;;;;;;4981789;28;19914;-82
2021/01/30 01:34:02;;;;;;;;;;;-0.20;99.90;;;;;;4974375;28;20385;-82
2021/01/30 01:36:28;;;;;;;;;;;-0.20;99.90;;;;;;4974608;28;19918;-84
2021/01/30 01:38:53;;;;;;;;;;;-0.20;99.90;;;;;;4982749;28;19921;-83
2021/01/30 01:41:19;;;;;;;;;;;-0.20;99.90;;;;;;4980124;28;20011;-83
2021/01/30 01:43:44;;;;;;;;;;;-0.10;99.90;;;;;;4992121;28;19923;-83
2021/01/30 01:46:17;;;;;;;;;;;-0.10;99.90;;;;;;4989157;28;19964;-83
2021/01/30 01:48:47;;;;;;;;;;;-0.20;99.90;;;;;;4993080;28;19922;-83
2021/01/30 01:51:16;;;;;;;;;;;-0.10;99.90;;;;;;5001199;28;19917;-83
2021/01/30 01:53:43;;;;;;;;;;;-0.10;99.90;;;;;;5010661;28;19914;-83
2021/01/30 01:56:14;;;;;;;;;;;-0.20;99.90;;;;;;4983789;28;19914;-83
2021/01/30 01:58:41;;;;;;;;;;;-0.20;99.90;;;;;;4999557;28;20325;-82
2021/01/30 02:01:08;;;;;;;;;;;-0.20;99.90;;;;;;4989651;28;19945;-83
2021/01/30 02:03:33;;;;;;;;;;;-0.20;99.90;;;;;;4987864;28;20421;-83
2021/01/30 02:06:00;;;;;;;;;;;-0.10;99.90;;;;;;4975630;28;19917;-83
2021/01/30 02:08:27;;;;;;;;;;;-0.10;99.90;;;;;;4977579;28;20016;-83
2021/01/30 02:10:52;;;;;;;;;;;-0.10;99.90;;;;;;4985645;28;19913;-81
2021/01/30 02:13:21;;;;;;;;;;;-0.10;99.90;;;;;;4973605;28;20027;-81
2021/01/30 02:15:47;;;;;;;;;;;-0.10;99.90;;;;;;4977599;28;19920;-84
2021/01/30 02:18:16;;;;;;;;;;;-0.10;99.90;;;;;;4979012;28;19917;-83
2021/01/30 02:21:00;;;;;;;;;;;-0.10;99.90;;;;;;4992455;28;19914;-83
2021/01/30 02:23:35;;;;;;;;;;;-0.10;99.90;;;;;;4992187;28;19964;-84
2021/01/30 02:26:19;;;;;;;;;;;-0.10;99.90;;;;;;4975027;28;19914;-83
2021/01/30 02:29:12;;;;;;;;;;;-0.20;99.90;;;;;;4987132;28;19926;-83
2021/01/30 02:32:00;;;;;;;;;;;-0.20;99.90;;;;;;4981183;28;20390;-83
2021/01/30 02:34:37;;;;;;;;;;;-0.20;99.90;;;;;;4984050;28;19920;-83
2021/01/30 02:37:05;;;;;;;;;;;-0.20;99.90;;;;;;4982947;28;19922;-83
2021/01/30 02:39:37;;;;;;;;;;;-0.10;99.90;;;;;;4994742;28;19914;-83
2021/01/30 02:42:13;;;;;;;;;;;-0.10;99.90;;;;;;4994291;28;20001;-83
2021/01/30 02:44:40;;;;;;;;;;;0.00;99.90;;;;;;4977302;28;19921;-83
2021/01/30 02:47:09;;;;;;;;;;;0.00;99.90;;;;;;4975191;28;19910;-83
2021/01/30 02:49:37;;;;;;;;;;;0.00;99.90;;;;;;4975185;28;19953;-83
2021/01/30 02:52:07;;;;;;;;;;;0.00;99.90;;;;;;4975408;28;20004;-83
2021/01/30 02:54:34;;;;;;;;;;;0.00;99.90;;;;;;4989897;28;19920;-83
2021/01/30 02:57:00;;;;;;;;;;;0.00;99.90;;;;;;4984915;28;19925;-83
2021/01/30 02:59:26;;;;;;;;;;;0.00;99.90;;;;;;4981550;28;19910;-83
2021/01/30 03:01:51;;;;;;;;;;;-0.10;99.90;;;;;;4976935;28;19914;-83
2021/01/30 03:04:20;;;;;;;;;;;-0.10;99.90;;;;;;4983596;28;19977;-84
2021/01/30 03:07:00;;;;;;;;;;;-0.10;99.90;;;;;;4994693;28;19918;-83
2021/01/30 03:09:41;;;;;;;;;;;-0.10;99.90;;;;;;4977138;28;19922;-83
2021/01/30 03:12:13;;;;;;;;;;;-0.10;99.90;;;;;;4995763;28;19921;-83
2021/01/30 03:14:44;;;;;;;;;;;-0.10;99.90;;;;;;4982386;28;19921;-83
2021/01/30 03:17:10;;;;;;;;;;;0.00;99.90;;;;;;4994947;28;19913;-84
2021/01/30 03:19:36;;;;;;;;;;;0.00;99.90;;;;;;4976891;28;19914;-83
2021/01/30 03:22:09;;;;;;;;;;;-0.10;99.90;;;;;;4983540;28;19920;-83
2021/01/30 03:24:39;;;;;;;;;;;-0.10;99.90;;;;;;5012815;28;19928;-82
2021/01/30 03:27:05;;;;;;;;;;;-0.10;99.90;;;;;;4980220;28;19968;-83
2021/01/30 03:29:30;;;;;;;;;;;-0.10;99.90;;;;;;4984204;28;20042;-83
2021/01/30 03:31:56;;;;;;;;;;;-0.10;99.90;;;;;;4986951;28;19913;-83
2021/01/30 03:34:21;;;;;;;;;;;-0.10;99.90;;;;;;4989656;28;20011;-83
2021/01/30 03:36:47;;;;;;;;;;;-0.10;99.90;;;;;;4978705;28;20366;-83
2021/01/30 03:39:13;;;;;;;;;;;0.00;99.90;;;;;;5005165;28;19918;-83
2021/01/30 03:41:40;;;;;;;;;;;-0.10;99.90;;;;;;4982972;28;19909;-83
2021/01/30 03:44:05;;;;;;;;;;;0.00;99.90;;;;;;4985092;28;19939;-83
2021/01/30 03:46:31;;;;;;;;;;;0.00;99.90;;;;;;4976430;28;20355;-83
2021/01/30 03:48:56;;;;;;;;;;;-0.10;99.90;;;;;;4976134;28;19925;-83
2021/01/30 03:51:22;;;;;;;;;;;0.00;99.90;;;;;;4989916;28;20437;-83
2021/01/30 03:53:47;;;;;;;;;;;0.00;99.90;;;;;;4976262;28;19917;-83
2021/01/30 03:56:13;;;;;;;;;;;0.00;99.90;;;;;;4976219;28;19918;-83
2021/01/30 03:58:39;;;;;;;;;;;0.00;99.90;;;;;;4976054;28;19914;-84
2021/01/30 04:01:04;;;;;;;;;;;0.00;99.90;;;;;;4976289;28;19910;-83
2021/01/30 04:03:29;;;;;;;;;;;0.00;99.90;;;;;;4977292;28;19929;-83
2021/01/30 04:05:55;;;;;;;;;;;0.00;99.90;;;;;;4955447;28;19965;-82
2021/01/30 04:08:20;;;;;;;;;;;0.10;99.90;;;;;;4955691;28;19922;-83
2021/01/30 04:10:46;;;;;;;;;;;0.00;99.90;;;;;;4955822;28;20358;-83
2021/01/30 04:13:13;;;;;;;;;;;-0.10;99.90;;;;;;4955508;28;19914;-83
2021/01/30 04:15:41;;;;;;;;;;;-0.10;99.90;;;;;;4956211;28;19954;-82
2021/01/30 04:18:06;;;;;;;;;;;-0.20;99.90;;;;;;4967041;28;19913;-83
2021/01/30 04:20:32;;;;;;;;;;;-0.20;99.90;;;;;;4975461;28;19921;-83
2021/01/30 04:22:57;;;;;;;;;;;-0.20;99.90;;;;;;4960467;28;19914;-83
2021/01/30 04:25:24;;;;;;;;;;;-0.20;99.90;;;;;;4958386;28;19918;-83
2021/01/30 04:27:50;;;;;;;;;;;-0.20;99.90;;;;;;4955855;28;19976;-83
2021/01/30 04:30:17;;;;;;;;;;;-0.20;99.90;;;;;;4971761;28;19917;-83
2021/01/30 04:32:42;;;;;;;;;;;-0.10;99.90;;;;;;4967509;28;19925;-83
2021/01/30 04:35:10;;;;;;;;;;;-0.20;99.90;;;;;;4964334;28;19913;-83
2021/01/30 04:37:35;;;;;;;;;;;-0.30;99.90;;;;;;4967634;28;20329;-83
2021/01/30 04:40:01;;;;;;;;;;;-0.30;99.90;;;;;;4975752;28;19917;-83
2021/01/30 04:42:33;;;;;;;;;;;-0.30;99.90;;;;;;4992646;28;19957;-83
2021/01/30 04:45:02;;;;;;;;;;;-0.20;99.90;;;;;;4995094;28;19913;-83
2021/01/30 04:47:45;;;;;;;;;;;-0.30;99.90;;;;;;4993243;28;19928;-83
2021/01/30 04:50:29;;;;;;;;;;;-0.30;99.90;;;;;;4965752;28;19914;-83
2021/01/30 04:53:01;;;;;;;;;;;-0.30;99.90;;;;;;4937211;28;19997;-82
2021/01/30 04:55:45;;;;;;;;;;;-0.30;99.90;;;;;;4942834;29;19918;-83
2021/01/30 04:58:16;;;;;;;;;;;-0.40;99.90;;;;;;4950978;28;20244;-83
2021/01/30 05:01:07;;;;;;;;;;;-0.40;99.90;;;;;;4941813;28;19914;-83
2021/01/30 05:03:40;;;;;;;;;;;-0.40;99.90;;;;;;4953917;28;20556;-83
2021/01/30 05:06:11;;;;;;;;;;;-0.40;99.90;;;;;;4936546;29;19918;-82
2021/01/30 05:08:42;;;;;;;;;;;-0.50;99.90;;;;;;4952982;28;19922;-83
2021/01/30 05:11:13;;;;;;;;;;;-0.50;99.90;;;;;;4936002;29;19978;-81
2021/01/30 05:13:43;;;;;;;;;;;-0.50;99.90;;;;;;4951289;28;19942;-81
2021/01/30 05:16:11;;;;;;;;;;;-0.40;99.90;;;;;;4935191;29;19946;-82
2021/01/30 05:18:40;;;;;;;;;;;-0.40;99.90;;;;;;4950290;28;20291;-81
2021/01/30 05:21:09;;;;;;;;;;;-0.40;99.90;;;;;;4971982;28;19991;-81
2021/01/30 05:23:35;;;;;;;;;;;-0.40;99.90;;;;;;4974802;28;19913;-82
2021/01/30 05:26:03;;;;;;;;;;;-0.40;99.90;;;;;;4974847;28;19936;-81
2021/01/30 05:28:44;;;;;;;;;;;-0.50;99.90;;;;;;4974211;28;19922;-82
2021/01/30 05:31:09;;;;;;;;;;;-0.50;99.90;;;;;;4986248;28;19920;-82
2021/01/30 05:33:50;;;;;;;;;;;-0.50;99.90;;;;;;4978963;28;19913;-82
2021/01/30 05:36:33;;;;;;;;;;;-0.50;99.90;;;;;;4984828;28;19917;-82
2021/01/30 05:39:08;;;;;;;;;;;-0.50;99.90;;;;;;4986150;28;20356;-82
2021/01/30 05:41:43;;;;;;;;;;;-0.50;99.90;;;;;;4984893;28;19913;-83
2021/01/30 05:44:18;;;;;;;;;;;-0.50;99.90;;;;;;4993169;28;19910;-81
2021/01/30 05:46:44;;;;;;;;;;;-0.50;99.90;;;;;;4977682;28;19917;-82
2021/01/30 05:49:13;;;;;;;;;;;-0.40;99.90;;;;;;4954706;28;19922;-82
2021/01/30 05:51:45;;;;;;;;;;;-0.40;99.90;;;;;;4972866;28;19914;-82
2021/01/30 05:54:11;;;;;;;;;;;-0.40;99.90;;;;;;4976226;28;20352;-81
2021/01/30 05:56:37;;;;;;;;;;;-0.40;99.90;;;;;;4975259;28;19917;-81
2021/01/30 05:59:05;;;;;;;;;;;-0.30;99.90;;;;;;4976688;28;20052;-81
2021/01/30 06:01:31;;;;;;;;;;;-0.30;99.90;;;;;;4974015;28;19910;-82
2021/01/30 06:04:07;;;;;;;;;;;-0.40;99.90;;;;;;4973764;28;19929;-82
2021/01/30 06:06:41;;;;;;;;;;;-0.40;99.90;;;;;;4983989;28;19928;-82
2021/01/30 06:09:29;;;;;;;;;;;-0.40;99.90;;;;;;4991256;28;20404;-82
2021/01/30 06:11:55;;;;;;;;;;;-0.40;99.90;;;;;;4988590;28;19920;-82
2021/01/30 06:14:29;;;;;;;;;;;-0.40;99.90;;;;;;4992561;28;19996;-82
2021/01/30 06:16:59;;;;;;;;;;;-0.40;99.90;;;;;;4992550;28;19917;-82
2021/01/30 06:19:27;;;;;;;;;;;-0.40;99.90;;;;;;4991610;28;19917;-82
2021/01/30 06:22:10;;;;;;;;;;;-0.50;99.90;;;;;;4973781;28;19922;-82
2021/01/30 06:24:36;;;;;;;;;;;-0.50;99.90;;;;;;4973365;28;19921;-82
2021/01/30 06:27:07;;;;;;;;;;;-0.50;99.90;;;;;;4985958;28;19913;-81
2021/01/30 06:29:43;;;;;;;;;;;-0.50;99.90;;;;;;4980664;28;20009;-82
2021/01/30 06:32:27;;;;;;;;;;;-0.40;99.90;;;;;;4984372;28;19914;-82
2021/01/30 06:35:16;;;;;;;;;;;-0.40;99.90;;;;;;4975883;28;20065;-82
2021/01/30 06:37:48;;;;;;;;;;;-0.40;99.90;;;;;;4972209;28;19924;-83
2021/01/30 06:40:16;;;;;;;;;;;-0.40;99.90;;;;;;4992555;28;19925;-82
2021/01/30 06:42:42;;;;;;;;;;;-0.50;99.90;;;;;;4989538;28;19913;-82
2021/01/30 06:45:08;;;;;;;;;;;-0.50;99.90;;;;;;4992622;28;20278;-82
2021/01/30 06:47:47;;;;;;;;;;;-0.60;99.90;;;;;;4991603;28;19918;-82
2021/01/30 06:50:17;;;;;;;;;;;-0.60;99.90;;;;;;4992867;28;20373;-82
2021/01/30 06:52:42;;;;;;;;;;;-0.60;99.90;;;;;;4976931;28;19960;-82
2021/01/30 06:55:09;;;;;;;;;;;-0.60;99.90;;;;;;4973211;28;19942;-82
2021/01/30 06:57:46;;;;;;;;;;;-0.70;99.90;;;;;;4978431;28;19914;-82
2021/01/30 07:00:15;;;;;;;;;;;-0.80;99.90;;;;;;4976864;28;19921;-81
2021/01/30 07:02:42;;;;;;;;;;;-0.80;99.90;;;;;;4979284;28;20376;-82
2021/01/30 07:05:22;;;;;;;;;;;-0.90;99.90;;;;;;4974299;28;20000;-82
2021/01/30 07:08:05;;;;;;;;;;;-1.00;99.90;;;;;;4971240;28;19946;-82
2021/01/30 07:10:37;;;;;;;;;;;-1.00;99.90;;;;;;4973199;28;20275;-82
2021/01/30 07:13:21;;;;;;;;;;;-1.00;99.90;;;;;;4973171;28;19925;-81
2021/01/30 07:16:16;;;;;;;;;;;-1.00;99.90;;;;;;4973077;28;20358;-82
2021/01/30 07:18:45;;;;;;;;;;;-1.10;99.90;;;;;;4890531;29;19971;-82
2021/01/30 07:21:16;;;;;;;;;;;-1.10;99.90;;;;;;4886867;29;20002;-82
2021/01/30 07:24:00;;;;;;;;;;;-1.20;99.90;;;;;;4895414;29;19974;-82
2021/01/30 07:26:28;;;;;;;;;;;-1.20;99.90;;;;;;4898132;29;19967;-82
2021/01/30 07:29:12;;;;;;;;;;;-1.20;99.90;;;;;;4886101;29;19923;-82
2021/01/30 07:31:45;;;;;;;;;;;-1.30;99.90;;;;;;4882721;29;19915;-82
2021/01/30 07:34:19;;;;;;;;;;;-1.30;99.90;;;;;;4896305;29;19994;-82
2021/01/30 07:36:45;;;;;;;;;;;-1.30;99.90;;;;;;4876523;29;19927;-82
2021/01/30 07:39:26;;;;;;;;;;;-1.30;99.90;;;;;;4862854;29;19916;-82
2021/01/30 07:41:55;;;;;;;;;;;-1.30;99.90;;;;;;4875249;29;19935;-81
2021/01/30 07:44:25;;;;;;;;;;;-1.30;99.90;;;;;;4877150;29;20393;-82
2021/01/30 07:47:09;;;;;;;;;;;-1.30;99.90;;;;;;4893548;29;19923;-81
2021/01/30 07:49:35;;;;;;;;;;;-1.30;99.90;;;;;;4892739;29;20320;-81
2021/01/30 07:52:07;;;;;;;;;;;-1.30;99.90;;;;;;4895474;29;19955;-82
2021/01/30 07:54:34;;;;;;;;;;;-1.40;99.90;;;;;;4896245;28;20013;-81
2021/01/30 07:57:03;;;;;;;;;;;-1.50;99.90;;;;;;4955454;28;20001;-82
2021/01/30 07:59:38;;;;;;;;;;;-1.40;99.90;;;;;;4963727;28;20318;-82
2021/01/30 08:02:26;;;;;;;;;;;-1.40;99.90;;;;;;4954998;28;20008;-81
2021/01/30 08:05:21;;;;;;;;;;;-1.60;99.90;;;;;;4953279;28;19922;-82
2021/01/30 08:07:50;;;;;;;;;;;-1.60;99.90;;;;;;4918155;29;19935;-82
2021/01/30 08:10:19;;;;;;;;;;;-1.50;99.90;;;;;;4922742;29;19915;-82
2021/01/30 08:13:11;;;;;;;;;;;-1.50;99.90;;;;;;4916163;29;20424;-82
2021/01/30 08:15:36;;;;;;;;;;;-1.60;99.90;;;;;;4900086;29;19915;-81
2021/01/30 08:18:15;;;;;;;;;;;-1.70;99.90;;;;;;4923622;29;20375;-81
2021/01/30 08:20:49;;;;;;;;;;;-1.80;99.90;;;;;;4918759;29;20388;-82
2021/01/30 08:23:34;;;;;;;;;;;-1.70;99.90;;;;;;4898547;29;19927;-82
2021/01/30 08:26:18;;;;;;;;;;;-1.70;99.90;;;;;;4910101;29;20404;-82
2021/01/30 08:28:57;;;;;;;;;;;-1.70;99.90;;;;;;4904566;29;19932;-82
2021/01/30 08:31:37;;;;;;;;;;;-1.60;99.90;;;;;;4919693;29;19976;-82
2021/01/30 08:34:02;;;;;;;;;;;-1.70;99.90;;;;;;4917155;29;19911;-82
2021/01/30 08:36:32;;;;;;;;;;;-1.60;99.90;;;;;;4930627;29;19941;-82
2021/01/30 08:39:04;;;;;;;;;;;-1.70;99.90;;;;;;4905028;29;19915;-82
2021/01/30 08:41:39;;;;;;;;;;;-1.60;99.90;;;;;;4915109;29;20281;-82
2021/01/30 08:44:04;;;;;;;;;;;-1.70;99.90;;;;;;4944682;28;20274;-82
2021/01/30 08:46:40;;;;;;;;;;;-1.70;99.90;;;;;;4961867;28;19913;-82
2021/01/30 08:49:15;;;;;;;;;;;-1.80;99.90;;;;;;4971382;28;19928;-84
2021/01/30 08:51:41;;;;;;;;;;;-1.90;99.90;;;;;;4963146;28;19956;-82
2021/01/30 08:54:20;;;;;;;;;;;-1.80;99.90;;;;;;4961060;28;19914;-80
2021/01/30 08:56:47;;;;;;;;;;;-1.90;99.90;;;;;;4993152;28;19960;-83
2021/01/30 08:59:32;;;;;;;;;;;-2.00;99.90;;;;;;4973973;28;19957;-83
2021/01/30 09:01:58;;;;;;;;;;;-2.00;99.90;;;;;;4967684;28;19917;-82
2021/01/30 09:04:57;;;;;;;;;;;-2.00;99.90;;;;;;4994222;28;19945;-82
2021/01/30 09:07:52;;;;;;;;;;;-2.00;99.90;;;;;;4904700;29;20345;-82
2021/01/30 09:10:25;;;;;;;;;;;-1.90;99.90;;;;;;4908259;29;20010;-83
2021/01/30 09:12:52;;;;;;;;;;;-2.00;99.90;;;;;;4879039;29;19989;-82
2021/01/30 09:15:43;;;;;;;;;;;-2.00;99.90;;;;;;4887864;29;20470;-82
2021/01/30 09:18:28;;;;;;;;;;;-1.90;99.90;;;;;;4841234;29;20286;-82
2021/01/30 09:20:53;;;;;;;;;;;-1.80;99.90;;;;;;4856822;29;20414;-82
2021/01/30 09:23:39;;;;;;;;;;;-1.80;99.90;;;;;;4841337;29;19920;-83
2021/01/30 09:26:08;;;;;;;;;;;-1.80;99.90;;;;;;4856865;29;19916;-81
2021/01/30 09:28:35;;;;;;;;;;;-1.70;99.90;;;;;;4856263;29;20486;-82
2021/01/30 09:31:03;;;;;;;;;;;-1.60;99.90;;;;;;4840893;29;20007;-82
2021/01/30 09:33:30;;;;;;;;;;;-1.50;99.90;;;;;;4852719;29;19923;-82
2021/01/30 09:36:14;;;;;;;;;;;-1.50;99.90;;;;;;4856572;29;19943;-83
2021/01/30 09:38:41;;;;;;;;;;;-1.40;99.90;;;;;;4841261;29;20090;-82
2021/01/30 09:41:27;;;;;;;;;;;-1.30;99.90;;;;;;4855966;29;19912;-82
2021/01/30 09:44:22;;;;;;;;;;;-1.30;99.90;;;;;;4923639;29;20079;-82
2021/01/30 09:46:54;;;;;;;;;;;-1.30;99.90;;;;;;4877687;29;19964;-83
2021/01/30 09:49:22;;;;;;;;;;;-1.40;99.90;;;;;;4873942;29;19966;-83
2021/01/30 09:51:49;;;;;;;;;;;-1.30;99.90;;;;;;4875189;29;19925;-83
2021/01/30 09:54:17;;;;;;;;;;;-1.40;99.90;;;;;;4855267;29;20288;-83
2021/01/30 09:56:44;;;;;;;;;;;-1.20;99.90;;;;;;4856241;29;19977;-83
2021/01/30 09:59:12;;;;;;;;;;;-1.20;99.90;;;;;;4847800;29;20018;-82
2021/01/30 10:01:39;;;;;;;;;;;-1.20;99.90;;;;;;4845596;29;19913;-83
2021/01/30 10:04:15;;;;;;;;;;;-1.10;99.90;;;;;;4879997;29;20007;-83
2021/01/30 10:06:41;;;;;;;;;;;-1.10;99.90;;;;;;4893101;29;19978;-83
2021/01/30 10:09:13;;;;;;;;;;;-1.10;99.90;;;;;;4883845;29;19980;-83
2021/01/30 10:11:40;;;;;;;;;;;-1.00;99.90;;;;;;4870765;29;19938;-83
2021/01/30 10:14:07;;;;;;;;;;;-1.10;99.90;;;;;;4880540;29;19915;-83
2021/01/30 10:16:33;;;;;;;;;;;-1.10;99.90;;;;;;4892163;29;19915;-84
2021/01/30 10:19:00;;;;;;;;;;;-0.90;99.90;;;;;;4881676;29;19923;-83
2021/01/30 10:21:30;;;;;;;;;;;-0.90;99.90;;;;;;4870233;29;19916;-83
2021/01/30 10:23:55;;;;;;;;;;;-0.80;99.90;;;;;;4955084;28;19914;-83
2021/01/30 10:26:23;;;;;;;;;;;-0.60;99.90;;;;;;4973725;28;19913;-83
2021/01/30 10:28:53;;;;;;;;;;;-0.70;99.90;;;;;;4991770;28;19922;-83
2021/01/30 10:31:22;;;;;;;;;;;-0.70;99.90;;;;;;4985222;28;20279;-83
2021/01/30 10:33:49;;;;;;;;;;;-0.60;99.90;;;;;;4993829;28;20250;-83
2021/01/30 10:36:16;;;;;;;;;;;-0.60;99.90;;;;;;4987444;28;19942;-83
2021/01/30 10:38:42;;;;;;;;;;;-0.70;99.90;;;;;;4974962;28;20000;-83
2021/01/30 10:41:14;;;;;;;;;;;-0.80;99.90;;;;;;4985657;28;19964;-82
2021/01/30 10:43:41;;;;;;;;;;;-0.80;99.90;;;;;;4984164;28;19914;-83
2021/01/30 10:46:39;;;;;;;;;;;-0.60;99.90;;;;;;4973276;28;19914;-83
2021/01/30 10:49:25;;;;;;;;;;;-0.50;99.90;;;;;;4913850;28;19927;-83
2021/01/30 10:52:17;;;;;;;;;;;-0.40;99.90;;;;;;4855559;29;19972;-83
2021/01/30 10:54:42;;;;;;;;;;;-0.40;99.90;;;;;;4868729;29;19950;-82
2021/01/30 10:57:17;;;;;;;;;;;-0.40;99.90;;;;;;4858469;29;20426;-83
2021/01/30 10:59:43;;;;;;;;;;;-0.50;99.90;;;;;;4858149;29;19916;-83
2021/01/30 11:02:24;;;;;;;;;;;-0.50;99.90;;;;;;4873835;29;19916;-83
2021/01/30 11:05:19;;;;;;;;;;;-0.50;99.90;;;;;;4852029;29;19915;-83
2021/01/30 11:07:45;;;;;;;;;;;-0.30;99.90;;;;;;4802359;29;19939;-83
2021/01/30 11:10:23;;;;;;;;;;;-0.20;99.90;;;;;;4819137;29;19913;-83
2021/01/30 11:12:49;;;;;;;;;;;-0.10;99.90;;;;;;4803315;29;19917;-83
2021/01/30 11:15:18;;;;;;;;;;;-0.10;99.90;;;;;;4820317;29;19925;-82
2021/01/30 11:17:43;;;;;;;;;;;-0.10;99.90;;;;;;4820929;29;20013;-82
2021/01/30 11:20:10;;;;;;;;;;;-0.20;99.90;;;;;;4821861;29;20106;-82
2021/01/30 11:22:35;;;;;;;;;;;-0.30;99.90;;;;;;4821379;29;19917;-83
2021/01/30 11:25:04;;;;;;;;;;;-0.30;99.90;;;;;;4794475;29;19921;-82
2021/01/30 11:27:33;;;;;;;;;;;-0.50;99.90;;;;;;4803271;29;19968;-82
2021/01/30 11:30:16;;;;;;;;;;;-0.70;99.90;;;;;;4887858;29;19938;-82
2021/01/30 11:32:57;;;;;;;;;;;-0.80;99.90;;;;;;4883205;29;19915;-83
2021/01/30 11:35:27;;;;;;;;;;;-0.80;99.90;;;;;;4894007;29;19916;-82
2021/01/30 11:37:54;;;;;;;;;;;-0.80;99.90;;;;;;4895088;29;19924;-83
2021/01/30 11:40:20;;;;;;;;;;;-0.90;99.90;;;;;;4895123;29;19931;-82
2021/01/30 11:42:45;;;;;;;;;;;-0.80;99.90;;;;;;4894136;29;19930;-83
2021/01/30 11:45:11;;;;;;;;;;;-0.80;99.90;;;;;;4990330;28;19914;-83
2021/01/30 11:47:37;;;;;;;;;;;-0.70;99.90;;;;;;4984914;28;19953;-82
2021/01/30 11:50:03;;;;;;;;;;;-0.60;99.90;;;;;;4980701;28;20012;-82
2021/01/30 11:52:29;;;;;;;;;;;-0.60;99.90;;;;;;4985026;28;19914;-83
2021/01/30 11:54:55;;;;;;;;;;;-0.40;99.90;;;;;;4981870;28;19920;-83
2021/01/30 11:57:20;;;;;;;;;;;-0.60;99.90;;;;;;5003745;28;20250;-83
2021/01/30 11:59:46;;;;;;;;;;;-0.40;99.90;;;;;;5000031;28;20007;-83
2021/01/30 12:02:13;;;;;;;;;;;-0.40;99.90;;;;;;4984058;28;20016;-83
2021/01/30 12:04:39;;;;;;;;;;;-0.40;99.90;;;;;;4987712;28;19921;-83
2021/01/30 12:07:05;;;;;;;;;;;-0.30;99.90;;;;;;4977595;28;20362;-83
2021/01/30 12:09:30;;;;;;;;;;;-0.20;99.90;;;;;;4981661;28;19933;-83
2021/01/30 12:11:56;;;;;;;;;;;-0.30;99.90;;;;;;4996992;28;19913;-83
2021/01/30 12:14:21;;;;;;;;;;;-0.20;99.90;;;;;;4981247;28;19914;-83
2021/01/30 12:16:50;;;;;;;;;;;-0.10;99.90;;;;;;4988470;28;19929;-83
2021/01/30 12:19:16;;;;;;;;;;;-0.20;99.90;;;;;;4987231;28;19961;-83
2021/01/30 12:21:41;;;;;;;;;;;-0.10;99.90;;;;;;4979456;28;19957;-83
2021/01/30 12:24:07;;;;;;;;;;;0.00;99.90;;;;;;4983853;28;19942;-83
2021/01/30 12:26:32;;;;;;;;;;;-0.20;99.90;;;;;;4982714;28;19925;-83
2021/01/30 12:28:59;;;;;;;;;;;-0.30;99.90;;;;;;4979110;28;19922;-82
2021/01/30 12:31:25;;;;;;;;;;;-0.40;99.90;;;;;;4983996;28;19921;-82
2021/01/30 12:33:50;;;;;;;;;;;-0.40;99.90;;;;;;4981391;28;19914;-84
2021/01/30 12:36:23;;;;;;;;;;;-0.30;99.90;;;;;;4988758;28;19914;-85
2021/01/30 12:38:48;;;;;;;;;;;-0.30;99.90;;;;;;4981872;28;19934;-81
2021/01/30 12:41:14;;;;;;;;;;;-0.20;99.90;;;;;;4982952;28;19929;-82
2021/01/30 12:43:39;;;;;;;;;;;-0.10;99.90;;;;;;4978785;28;19924;-82
2021/01/30 12:46:05;;;;;;;;;;;-0.10;99.90;;;;;;4972362;28;19968;-82
2021/01/30 12:48:30;;;;;;;;;;;0.00;99.90;;;;;;4986938;28;19921;-82
2021/01/30 12:50:57;;;;;;;;;;;-0.30;99.90;;;;;;4986842;28;19957;-83
2021/01/30 12:53:23;;;;;;;;;;;-0.40;99.90;;;;;;4981251;28;20158;-83
2021/01/30 12:55:49;;;;;;;;;;;-0.40;99.90;;;;;;4981599;28;19922;-82
2021/01/30 12:58:16;;;;;;;;;;;-0.40;99.90;;;;;;4978516;28;20048;-83
2021/01/30 13:00:42;;;;;;;;;;;-0.40;99.90;;;;;;4976197;28;20013;-82
2021/01/30 13:03:07;;;;;;;;;;;-0.30;99.90;;;;;;4981892;28;19957;-82
2021/01/30 13:05:33;;;;;;;;;;;-0.30;99.90;;;;;;4976214;28;20008;-82
2021/01/30 13:08:00;;;;;;;;;;;-0.40;99.90;;;;;;4969435;28;19923;-82
2021/01/30 13:10:25;;;;;;;;;;;-0.40;99.90;;;;;;4952888;28;20115;-83
2021/01/30 13:12:51;;;;;;;;;;;-0.40;99.90;;;;;;4969698;28;20013;-82
2021/01/30 13:15:17;;;;;;;;;;;-0.30;99.90;;;;;;4953626;28;19949;-82
2021/01/30 13:17:43;;;;;;;;;;;-0.30;99.90;;;;;;4954082;28;19976;-83
2021/01/30 13:20:09;;;;;;;;;;;-0.20;99.90;;;;;;4953278;28;19941;-83
2021/01/30 13:22:35;;;;;;;;;;;-0.20;99.90;;;;;;4952209;28;20028;-83
2021/01/30 13:25:01;;;;;;;;;;;-0.20;99.90;;;;;;4953380;28;20053;-83
2021/01/30 13:27:27;;;;;;;;;;;-0.30;99.90;;;;;;4966364;28;19914;-82
2021/01/30 13:29:52;;;;;;;;;;;-0.30;99.90;;;;;;4954630;28;19945;-82
2021/01/30 13:32:18;;;;;;;;;;;-0.30;99.90;;;;;;4954056;28;19929;-83
2021/01/30 13:34:44;;;;;;;;;;;-0.30;99.90;;;;;;4953283;28;19962;-82
2021/01/30 13:37:09;;;;;;;;;;;-0.30;99.90;;;;;;4968494;28;20315;-83
2021/01/30 13:39:35;;;;;;;;;;;-0.20;99.90;;;;;;4974321;28;19921;-82
2021/01/30 13:42:00;;;;;;;;;;;-0.20;99.90;;;;;;4982890;28;19920;-82
2021/01/30 13:44:26;;;;;;;;;;;-0.20;99.90;;;;;;4981094;28;19992;-83
2021/01/30 13:46:51;;;;;;;;;;;-0.10;99.90;;;;;;4990736;28;19914;-82
2021/01/30 13:49:17;;;;;;;;;;;0.00;99.90;;;;;;4977753;28;19921;-82
2021/01/30 13:51:42;;;;;;;;;;;0.00;99.90;;;;;;4975480;28;19917;-83
2021/01/30 13:54:10;;;;;;;;;;;0.00;99.90;;;;;;4989811;28;19986;-83
2021/01/30 13:56:37;;;;;;;;;;;0.00;99.90;;;;;;4964313;28;19918;-83
2021/01/30 13:59:02;;;;;;;;;;;-0.10;99.90;;;;;;4973948;28;19920;-83
2021/01/30 14:01:28;;;;;;;;;;;0.00;99.90;;;;;;4990759;28;20008;-82
2021/01/30 14:03:53;;;;;;;;;;;-0.10;99.90;;;;;;4979055;28;20333;-82
2021/01/30 14:06:19;;;;;;;;;;;-0.10;99.90;;;;;;4982469;28;20022;-82
2021/01/30 14:08:44;;;;;;;;;;;-0.20;99.90;;;;;;4994680;28;19922;-82
2021/01/30 14:11:10;;;;;;;;;;;-0.20;99.90;;;;;;5003747;28;19976;-82
2021/01/30 14:13:36;;;;;;;;;;;-0.30;99.90;;;;;;4981763;28;20276;-82
2021/01/30 14:16:01;;;;;;;;;;;-0.30;99.90;;;;;;4966130;28;20028;-81
2021/01/30 14:18:27;;;;;;;;;;;-0.40;99.90;;;;;;4983517;28;20294;-82
2021/01/30 14:20:52;;;;;;;;;;;-0.40;99.90;;;;;;4979212;28;19914;-82
2021/01/30 14:23:18;;;;;;;;;;;-0.40;99.90;;;;;;4978652;28;19914;-84
2021/01/30 14:25:43;;;;;;;;;;;-0.40;99.90;;;;;;4985522;28;19927;-82
2021/01/30 14:28:09;;;;;;;;;;;-0.30;99.90;;;;;;4982465;28;19917;-82
2021/01/30 14:30:34;;;;;;;;;;;-0.30;99.90;;;;;;4976161;28;19921;-82
2021/01/30 14:33:01;;;;;;;;;;;-0.20;99.90;;;;;;4977274;28;19967;-82
2021/01/30 14:35:27;;;;;;;;;;;-0.10;99.90;;;;;;4973575;28;19925;-82